createdAt,value
2019-03-17T00:02:17.647Z,97018.35
2019-03-17T00:04:46.349Z,97019.36
2019-03-17T00:07:15.050Z,97012.54
2019-03-17T00:09:43.729Z,96999.92
2019-03-17T00:12:12.481Z,97009.71
2019-03-17T00:14:41.172Z,97007.08
2019-03-17T00:17:10.164Z,97003.90
2019-03-17T00:19:38.854Z,96994.11
2019-03-17T00:22:07.864Z,96997.54
2019-03-17T00:24:36.838Z,97002.52
2019-03-17T00:27:05.585Z,96977.30
2019-03-17T00:29:34.273Z,96970.78
2019-03-17T00:32:02.981Z,96970.78
2019-03-17T00:34:43.283Z,96977.75
2019-03-17T00:37:02.226Z,96978.42
2019-03-17T00:39:31.305Z,96976.13
2019-03-17T00:42:00.302Z,96976.13
2019-03-17T00:44:29.291Z,96969.77
2019-03-17T00:46:58.051Z,96962.70
2019-03-17T00:49:26.729Z,96965.89
2019-03-17T00:51:55.446Z,96955.22
2019-03-17T00:54:24.443Z,96949.31
2019-03-17T00:56:53.136Z,96949.52
2019-03-17T00:59:22.129Z,96949.52
2019-03-17T01:01:52.988Z,96936.10
2019-03-17T01:04:24.674Z,96939.28
2019-03-17T01:06:53.375Z,96923.13
2019-03-17T01:09:22.159Z,96924.73
2019-03-17T01:11:50.881Z,96922.00
2019-03-17T01:14:19.973Z,96902.67
2019-03-17T01:16:48.711Z,96909.61
2019-03-17T01:19:17.515Z,96921.54
2019-03-17T01:21:46.192Z,96917.00
2019-03-17T01:24:15.148Z,96912.10
2019-03-17T01:26:43.837Z,96904.03
2019-03-17T01:29:12.574Z,96893.11
2019-03-17T01:31:41.284Z,96894.04
2019-03-17T01:34:11.202Z,96892.20
2019-03-17T01:36:40.391Z,96886.05
2019-03-17T01:39:09.183Z,96877.66
2019-03-17T01:41:37.930Z,96875.82
2019-03-17T01:44:06.603Z,96862.61
2019-03-17T01:46:35.318Z,96863.30
2019-03-17T01:49:04.284Z,96860.13
2019-03-17T01:51:33.631Z,96864.22
2019-03-17T01:54:02.315Z,96858.31
2019-03-17T01:56:31.311Z,96857.16
2019-03-17T01:59:00.302Z,96834.52
2019-03-17T02:01:29.042Z,96841.69
2019-03-17T02:03:58.003Z,96832.34
2019-03-17T02:06:26.992Z,96835.52
2019-03-17T02:08:56.189Z,96829.61
2019-03-17T02:11:24.964Z,96843.50
2019-03-17T02:13:53.653Z,96833.34
2019-03-17T02:16:22.573Z,96828.92
2019-03-17T02:18:51.526Z,96823.02
2019-03-17T02:21:20.476Z,96821.21
2019-03-17T02:23:49.869Z,96813.34
2019-03-17T02:26:18.660Z,96802.50
2019-03-17T02:28:47.754Z,96809.58
2019-03-17T02:31:16.419Z,96808.69
2019-03-17T02:33:45.436Z,96800.73
2019-03-17T02:36:14.685Z,96803.22
2019-03-17T02:38:43.676Z,96807.08
2019-03-17T02:41:12.348Z,96772.28
2019-03-17T02:43:41.356Z,96772.28
2019-03-17T02:46:10.051Z,96764.53
2019-03-17T02:48:39.134Z,96756.14
2019-03-17T02:51:07.821Z,96752.31
2019-03-17T02:53:36.913Z,96764.38
2019-03-17T02:56:05.629Z,96765.27
2019-03-17T02:58:34.306Z,96764.14
2019-03-17T03:01:03.353Z,96758.91
2019-03-17T03:03:32.680Z,96758.56
2019-03-17T03:06:01.690Z,96760.05
2019-03-17T03:08:30.401Z,96766.20
2019-03-17T03:10:59.760Z,96763.81
2019-03-17T03:13:28.544Z,96765.26
2019-03-17T03:15:57.540Z,96771.95
2019-03-17T03:18:26.498Z,96778.89
2019-03-17T03:20:55.533Z,96761.47
2019-03-17T03:23:24.525Z,96767.26
2019-03-17T03:25:53.820Z,96760.91
2019-03-17T03:28:22.821Z,96765.45
2019-03-17T03:30:51.556Z,96748.39
2019-03-17T03:33:20.963Z,96739.77
2019-03-17T03:35:49.698Z,96749.44
2019-03-17T03:38:18.707Z,96751.17
2019-03-17T03:40:47.672Z,96758.43
2019-03-17T03:43:16.702Z,96745.58
2019-03-17T03:45:45.964Z,96752.97
2019-03-17T03:48:15.066Z,96749.13
2019-03-17T03:50:43.732Z,96750.05
2019-03-17T03:53:12.742Z,96750.94
2019-03-17T03:55:42.259Z,96749.80
2019-03-17T03:58:11.524Z,96742.85
2019-03-17T04:00:40.536Z,96736.83
2019-03-17T04:03:11.696Z,96751.59
2019-03-17T04:05:40.975Z,96734.74
2019-03-17T04:08:09.654Z,96729.08
2019-03-17T04:10:38.344Z,96729.08
2019-03-17T04:13:07.350Z,96728.84
2019-03-17T04:15:36.116Z,96735.47
2019-03-17T04:18:04.921Z,96737.03
2019-03-17T04:20:34.222Z,96723.13
2019-03-17T04:23:03.279Z,96725.56
2019-03-17T04:25:31.993Z,96724.81
2019-03-17T04:28:00.996Z,96721.16
2019-03-17T04:30:30.300Z,96639.70
2019-03-17T04:32:59.340Z,96728.55
2019-03-17T04:35:28.088Z,96728.22
2019-03-17T04:37:56.816Z,96705.89
2019-03-17T04:40:25.856Z,96705.89
2019-03-17T04:42:55.153Z,96709.55
2019-03-17T04:45:24.996Z,96718.41
2019-03-17T04:47:53.681Z,96712.72
2019-03-17T04:50:22.870Z,96719.22
2019-03-17T04:52:59.068Z,96709.55
2019-03-17T04:55:28.108Z,96711.84
2019-03-17T04:57:57.620Z,96706.16
2019-03-17T05:00:26.909Z,96706.16
2019-03-17T05:02:55.834Z,96707.87
2019-03-17T05:05:24.509Z,96716.38
2019-03-17T05:07:53.182Z,96704.34
2019-03-17T05:10:22.971Z,96709.36
2019-03-17T05:12:52.374Z,96709.44
2019-03-17T05:15:21.079Z,96709.36
2019-03-17T05:17:52.213Z,96710.05
2019-03-17T05:20:21.204Z,96712.09
2019-03-17T05:22:50.500Z,96720.96
2019-03-17T05:25:19.177Z,96717.43
2019-03-17T05:27:47.862Z,96722.66
2019-03-17T05:30:16.541Z,96702.73
2019-03-17T05:32:45.214Z,96722.89
2019-03-17T05:35:14.234Z,96409.18
2019-03-17T05:37:42.893Z,96722.28
2019-03-17T05:40:12.443Z,96727.74
2019-03-17T05:42:41.428Z,96716.05
2019-03-17T05:45:10.799Z,96724.13
2019-03-17T05:47:39.769Z,96728.70
2019-03-17T05:50:09.116Z,96722.66
2019-03-17T05:52:38.112Z,96719.36
2019-03-17T05:55:07.093Z,96710.05
2019-03-17T05:57:35.751Z,96722.09
2019-03-17T06:00:04.639Z,96730.28
2019-03-17T06:02:33.679Z,96734.85
2019-03-17T06:05:02.349Z,96733.01
2019-03-17T06:07:31.289Z,96730.08
2019-03-17T06:09:59.963Z,96724.73
2019-03-17T06:12:28.656Z,96728.59
2019-03-17T06:14:57.641Z,96726.22
2019-03-17T06:17:26.672Z,96720.09
2019-03-17T06:19:56.010Z,96730.56
2019-03-17T06:22:25.376Z,96736.47
2019-03-17T06:24:54.053Z,96737.83
2019-03-17T06:27:23.089Z,96738.63
2019-03-17T06:29:52.088Z,96742.84
2019-03-17T06:32:20.785Z,96737.16
2019-03-17T06:34:49.432Z,96741.72
2019-03-17T06:37:30.249Z,96746.17
2019-03-17T06:39:48.865Z,96750.48
2019-03-17T06:42:17.869Z,96759.70
2019-03-17T06:44:46.858Z,96750.16
2019-03-17T06:47:15.854Z,96763.22
2019-03-17T06:49:44.844Z,96768.56
2019-03-17T06:52:13.839Z,96762.42
2019-03-17T06:54:43.138Z,96761.98
2019-03-17T06:57:11.831Z,96759.25
2019-03-17T06:59:40.799Z,96762.54
2019-03-17T07:02:09.797Z,96771.73
2019-03-17T07:04:39.013Z,96771.64
2019-03-17T07:07:07.698Z,96771.05
2019-03-17T07:09:36.671Z,96778.78
2019-03-17T07:12:05.781Z,96784.67
2019-03-17T07:14:35.097Z,96795.14
2019-03-17T07:17:03.771Z,96781.73
2019-03-17T07:19:32.484Z,96779.92
2019-03-17T07:22:01.454Z,96769.25
2019-03-17T07:24:30.625Z,96788.33
2019-03-17T07:26:59.672Z,96790.27
2019-03-17T07:29:28.665Z,96792.77
2019-03-17T07:31:57.438Z,96784.47
2019-03-17T07:34:26.485Z,96804.23
2019-03-17T07:36:55.503Z,96800.13
2019-03-17T07:39:24.178Z,96799.19
2019-03-17T07:41:53.489Z,96802.38
2019-03-17T07:44:22.177Z,96798.05
2019-03-17T07:46:51.154Z,96803.84
2019-03-17T07:49:20.725Z,96814.61
2019-03-17T07:51:49.427Z,96809.64
2019-03-17T07:54:18.350Z,96808.04
2019-03-17T07:56:47.352Z,96806.44
2019-03-17T07:59:16.642Z,96807.80
2019-03-17T08:01:45.637Z,96798.75
2019-03-17T08:04:14.645Z,96809.08
2019-03-17T08:06:43.619Z,96806.70
2019-03-17T08:09:12.618Z,96813.05
2019-03-17T08:11:41.618Z,96816.02
2019-03-17T08:14:11.007Z,96818.95
2019-03-17T08:16:40.049Z,96800.57
2019-03-17T08:19:09.342Z,96814.53
2019-03-17T08:21:38.394Z,96813.08
2019-03-17T08:24:07.158Z,96823.41
2019-03-17T08:26:35.879Z,96825.55
2019-03-17T08:29:04.866Z,96837.36
2019-03-17T08:31:33.556Z,96831.91
2019-03-17T08:34:02.649Z,96831.32
2019-03-17T08:36:31.351Z,96835.20
2019-03-17T08:39:00.303Z,96839.84
2019-03-17T08:41:29.295Z,96842.44
2019-03-17T08:43:58.614Z,96841.42
2019-03-17T08:46:27.282Z,96854.00
2019-03-17T08:48:56.117Z,96855.02
2019-03-17T08:51:24.907Z,96850.48
2019-03-17T08:53:53.869Z,96862.28
2019-03-17T08:56:22.787Z,96872.02
2019-03-17T08:58:51.856Z,96864.52
2019-03-17T09:01:20.831Z,96861.77
2019-03-17T09:03:49.543Z,96875.02
2019-03-17T09:06:18.219Z,96865.70
2019-03-17T09:08:47.312Z,96877.25
2019-03-17T09:11:16.005Z,96874.08
2019-03-17T09:13:44.991Z,96887.34
2019-03-17T09:16:13.688Z,96897.56
2019-03-17T09:18:42.622Z,96951.89
2019-03-17T09:21:11.307Z,96948.77
2019-03-17T09:23:42.668Z,96960.66
2019-03-17T09:26:10.672Z,96965.00
2019-03-17T09:28:39.447Z,96967.41
2019-03-17T09:31:08.385Z,96954.47
2019-03-17T09:33:37.342Z,96962.23
2019-03-17T09:36:06.103Z,96949.76
2019-03-17T09:38:46.714Z,96943.57
2019-03-17T09:41:05.875Z,96936.20
2019-03-17T09:43:34.627Z,96941.90
2019-03-17T09:46:03.351Z,96961.55
2019-03-17T09:48:32.324Z,96957.98
2019-03-17T09:51:01.276Z,96966.54
2019-03-17T09:53:30.242Z,96968.79
2019-03-17T09:55:59.261Z,96985.91
2019-03-17T09:58:28.046Z,96989.98
2019-03-17T10:00:57.092Z,97002.22
2019-03-17T10:03:26.152Z,96995.67
2019-03-17T10:05:54.843Z,96999.33
2019-03-17T10:08:23.569Z,97008.83
2019-03-17T10:10:52.265Z,97012.57
2019-03-17T10:13:21.003Z,97019.75
2019-03-17T10:15:49.709Z,97025.44
2019-03-17T10:18:19.117Z,97021.19
2019-03-17T10:20:47.918Z,97015.29
2019-03-17T10:23:16.998Z,97024.41
2019-03-17T10:25:46.094Z,97032.22
2019-03-17T10:28:14.902Z,97033.88
2019-03-17T10:30:43.600Z,97027.88
2019-03-17T10:33:12.593Z,97033.09
2019-03-17T10:35:41.284Z,97028.64
2019-03-17T10:38:10.333Z,97038.31
2019-03-17T10:40:39.027Z,97048.30
2019-03-17T10:43:07.813Z,97045.42
2019-03-17T10:45:36.812Z,97043.86
2019-03-17T10:48:06.051Z,97040.25
2019-03-17T10:50:34.770Z,97064.08
2019-03-17T10:53:03.556Z,97062.53
2019-03-17T10:55:32.389Z,97063.33
2019-03-17T10:58:01.085Z,97050.04
2019-03-17T11:00:29.768Z,97048.77
2019-03-17T11:02:58.742Z,97042.69
2019-03-17T11:05:27.422Z,97059.79
2019-03-17T11:07:56.188Z,97063.16
2019-03-17T11:10:24.891Z,97071.71
2019-03-17T11:12:53.893Z,97074.61
2019-03-17T11:15:22.987Z,97068.96
2019-03-17T11:17:51.739Z,97083.20
2019-03-17T11:20:20.967Z,97063.19
2019-03-17T11:22:49.674Z,97064.63
2019-03-17T11:25:18.412Z,97062.10
2019-03-17T11:27:47.747Z,97072.53
2019-03-17T11:30:16.875Z,97077.05
2019-03-17T11:32:45.977Z,97066.70
2019-03-17T11:35:14.864Z,97068.34
2019-03-17T11:37:43.594Z,97063.27
2019-03-17T11:40:13.150Z,97046.02
2019-03-17T11:42:42.085Z,97048.70
2019-03-17T11:45:12.692Z,97051.05
2019-03-17T11:47:41.451Z,97051.45
2019-03-17T11:50:11.903Z,97053.78
2019-03-17T11:52:40.741Z,97058.55
2019-03-17T11:55:09.939Z,97059.03
2019-03-17T11:57:39.141Z,97055.62
2019-03-17T12:00:09.647Z,97061.57
2019-03-17T12:02:39.159Z,97065.50
2019-03-17T12:05:08.731Z,97072.83
2019-03-17T12:07:37.445Z,97089.16
2019-03-17T12:10:07.805Z,97105.89
2019-03-17T12:12:37.198Z,97103.25
2019-03-17T12:15:06.829Z,97119.73
2019-03-17T12:17:35.913Z,97116.58
2019-03-17T12:20:05.835Z,97135.81
2019-03-17T12:22:34.904Z,97124.06
2019-03-17T12:25:03.808Z,97126.50
2019-03-17T12:27:32.910Z,97123.84
2019-03-17T12:30:01.830Z,97106.34
2019-03-17T12:32:30.823Z,97106.48
2019-03-17T12:34:59.570Z,97116.25
2019-03-17T12:37:28.675Z,97089.25
2019-03-17T12:40:02.519Z,97104.66
2019-03-17T12:42:28.326Z,97125.67
2019-03-17T12:44:57.063Z,97108.45
2019-03-17T12:47:26.054Z,97135.97
2019-03-17T12:49:55.245Z,97125.58
2019-03-17T12:52:24.190Z,97129.88
2019-03-17T12:54:53.251Z,97126.84
2019-03-17T12:57:22.018Z,97118.79
2019-03-17T12:59:50.742Z,97117.53
2019-03-17T13:02:19.562Z,97104.54
2019-03-17T13:04:48.510Z,97110.36
2019-03-17T13:07:17.575Z,97115.88
2019-03-17T13:09:46.327Z,97116.17
2019-03-17T13:12:15.185Z,97115.02
2019-03-17T13:14:44.077Z,97128.61
2019-03-17T13:17:13.085Z,97143.89
2019-03-17T13:19:41.883Z,97158.66
2019-03-17T13:22:10.596Z,97162.78
2019-03-17T13:24:39.609Z,97155.86
2019-03-17T13:27:08.542Z,97157.05
2019-03-17T13:29:37.416Z,97153.86
2019-03-17T13:32:06.279Z,97177.33
2019-03-17T13:34:35.214Z,97173.25
2019-03-17T13:37:04.676Z,97167.89
2019-03-17T13:39:33.658Z,97186.63
2019-03-17T13:42:02.403Z,97191.84
2019-03-17T13:44:31.387Z,97196.45
2019-03-17T13:47:00.368Z,97210.20
2019-03-17T13:49:29.440Z,97207.49
2019-03-17T13:52:00.608Z,97214.77
2019-03-17T13:54:30.108Z,97215.58
2019-03-17T13:56:59.368Z,97222.91
2019-03-17T13:59:28.093Z,97218.09
2019-03-17T14:01:56.800Z,97216.56
2019-03-17T14:04:25.551Z,97218.58
2019-03-17T14:06:54.347Z,97210.36
2019-03-17T14:09:25.417Z,97224.71
2019-03-17T14:11:54.726Z,97226.19
2019-03-17T14:14:23.751Z,97227.48
2019-03-17T14:16:52.495Z,97223.75
2019-03-17T14:19:21.495Z,97224.33
2019-03-17T14:21:50.470Z,97229.28
2019-03-17T14:24:19.438Z,97231.95
2019-03-17T14:26:48.653Z,97237.19
2019-03-17T14:29:17.424Z,97240.78
2019-03-17T14:31:46.403Z,97232.27
2019-03-17T14:34:17.824Z,97237.35
2019-03-17T14:36:46.783Z,97235.62
2019-03-17T14:39:15.742Z,97237.78
2019-03-17T14:41:50.732Z,97232.27
2019-03-17T14:44:19.736Z,97240.25
2019-03-17T14:46:48.462Z,97232.17
2019-03-17T14:49:17.232Z,97239.78
2019-03-17T14:51:45.927Z,97299.09
2019-03-17T14:54:14.876Z,97354.64
2019-03-17T14:56:43.657Z,97357.55
2019-03-17T14:59:12.614Z,97384.02
2019-03-17T15:01:41.455Z,97392.45
2019-03-17T15:04:10.784Z,97386.77
2019-03-17T15:06:39.868Z,97382.72
2019-03-17T15:09:08.787Z,97351.89
2019-03-17T15:11:37.595Z,97340.01
2019-03-17T15:14:06.382Z,97336.61
2019-03-17T15:16:37.017Z,97329.12
2019-03-17T15:19:06.214Z,97328.52
2019-03-17T15:21:35.187Z,97343.00
2019-03-17T15:24:04.152Z,97347.57
2019-03-17T15:26:33.208Z,97340.44
2019-03-17T15:29:02.219Z,97343.41
2019-03-17T15:31:30.959Z,97344.89
2019-03-17T15:33:59.657Z,97344.95
2019-03-17T15:36:29.449Z,97345.14
2019-03-17T15:38:58.701Z,97344.78
2019-03-17T15:41:27.441Z,97351.80
2019-03-17T15:43:56.380Z,97361.16
2019-03-17T15:46:25.111Z,97359.45
2019-03-17T15:48:54.054Z,97369.06
2019-03-17T15:51:22.917Z,97378.92
2019-03-17T15:53:51.601Z,97371.74
2019-03-17T15:56:20.281Z,97368.27
2019-03-17T15:58:48.984Z,97373.84
2019-03-17T16:01:17.700Z,97384.44
2019-03-17T16:03:46.653Z,97382.52
2019-03-17T16:06:15.713Z,97375.03
2019-03-17T16:08:45.141Z,97373.17
2019-03-17T16:11:13.829Z,97378.72
2019-03-17T16:13:42.901Z,97382.40
2019-03-17T16:16:11.973Z,97386.34
2019-03-17T16:18:41.152Z,97393.20
2019-03-17T16:21:09.842Z,97396.58
2019-03-17T16:23:38.798Z,97398.06
2019-03-17T16:26:07.808Z,97403.61
2019-03-17T16:28:36.796Z,97407.14
2019-03-17T16:31:05.517Z,97395.85
2019-03-17T16:33:34.527Z,97413.98
2019-03-17T16:36:03.488Z,97412.75
2019-03-17T16:38:34.901Z,97410.65
2019-03-17T16:41:03.680Z,97415.59
2019-03-17T16:43:32.632Z,97408.93
2019-03-17T16:46:01.953Z,97413.75
2019-03-17T16:48:30.683Z,97413.42
2019-03-17T16:50:59.408Z,97418.91
2019-03-17T16:53:28.090Z,97422.23
2019-03-17T16:55:56.877Z,97418.66
2019-03-17T16:58:25.579Z,97421.75
2019-03-17T17:00:54.513Z,97425.33
2019-03-17T17:03:23.720Z,97422.02
2019-03-17T17:05:52.518Z,97430.98
2019-03-17T17:08:21.684Z,97426.43
2019-03-17T17:10:50.839Z,97429.41
2019-03-17T17:13:19.910Z,97433.77
2019-03-17T17:15:48.856Z,97437.83
2019-03-17T17:18:17.532Z,97440.43
2019-03-17T17:20:46.475Z,97436.42
2019-03-17T17:23:15.470Z,97456.77
2019-03-17T17:25:44.171Z,97453.34
2019-03-17T17:28:13.103Z,97451.11
2019-03-17T17:30:41.801Z,97454.38
2019-03-17T17:33:11.042Z,97468.98
2019-03-17T17:35:39.721Z,97470.34
2019-03-17T17:38:08.656Z,97477.24
2019-03-17T17:40:37.366Z,97475.11
2019-03-17T17:43:06.066Z,97479.47
2019-03-17T17:45:34.995Z,97488.21
2019-03-17T17:48:03.688Z,97496.01
2019-03-17T17:50:32.744Z,97547.20
2019-03-17T17:53:01.672Z,97534.92
2019-03-17T17:55:30.378Z,97538.56
2019-03-17T17:57:59.214Z,97550.17
2019-03-17T18:00:30.237Z,97529.70
2019-03-17T18:02:59.514Z,97525.22
2019-03-17T18:05:28.592Z,97510.14
2019-03-17T18:07:57.295Z,97499.58
2019-03-17T18:10:26.246Z,97504.83
2019-03-17T18:12:55.163Z,97508.77
2019-03-17T18:15:24.163Z,97508.37
2019-03-17T18:17:53.164Z,97512.30
2019-03-17T18:20:22.021Z,97512.20
2019-03-17T18:22:51.028Z,97502.49
2019-03-17T18:25:19.880Z,97506.70
2019-03-17T18:27:48.816Z,97507.51
2019-03-17T18:30:18.210Z,97507.15
2019-03-17T18:32:47.238Z,97516.58
2019-03-17T18:35:16.162Z,97521.00
2019-03-17T18:37:45.165Z,97519.83
2019-03-17T18:40:14.614Z,97516.03
2019-03-17T18:42:43.424Z,97534.14
2019-03-17T18:45:17.105Z,97526.51
2019-03-17T18:47:46.135Z,97536.52
2019-03-17T18:50:20.793Z,97530.22
2019-03-17T18:52:46.404Z,97534.66
2019-03-17T18:55:15.256Z,97543.34
2019-03-17T18:57:44.262Z,97535.27
2019-03-17T19:00:15.161Z,97546.06
2019-03-17T19:02:44.077Z,97552.33
2019-03-17T19:05:13.060Z,97558.56
2019-03-17T19:07:42.164Z,97557.85
2019-03-17T19:10:11.032Z,97564.89
2019-03-17T19:12:45.800Z,97574.38
2019-03-17T19:15:13.186Z,97572.34
2019-03-17T19:17:42.222Z,97585.90
2019-03-17T19:20:13.818Z,97584.55
2019-03-17T19:22:43.691Z,97584.37
2019-03-17T19:25:13.222Z,97590.06
2019-03-17T19:27:42.331Z,97594.72
2019-03-17T19:30:12.698Z,97597.97
2019-03-17T19:32:41.502Z,97589.88
2019-03-17T19:35:10.575Z,97599.06
2019-03-17T19:37:39.255Z,97602.31
2019-03-17T19:40:08.958Z,97606.73
2019-03-17T19:42:37.863Z,97615.96
2019-03-17T19:45:07.064Z,97613.02
2019-03-17T19:47:36.245Z,97621.47
2019-03-17T19:50:05.383Z,97627.97
2019-03-17T19:52:34.052Z,97624.80
2019-03-17T19:55:02.786Z,97632.20
2019-03-17T19:57:31.733Z,97643.67
2019-03-17T20:00:00.689Z,97565.34
2019-03-17T20:02:29.426Z,97650.63
2019-03-17T20:05:00.731Z,97656.13
2019-03-17T20:07:29.699Z,97655.28
2019-03-17T20:09:58.465Z,97653.16
2019-03-17T20:12:27.646Z,97629.59
2019-03-17T20:14:56.356Z,97663.49
2019-03-17T20:17:25.086Z,97665.51
2019-03-17T20:19:53.763Z,97666.36
2019-03-17T20:22:22.490Z,97673.41
2019-03-17T20:24:51.475Z,97676.66
2019-03-17T20:27:20.162Z,97688.03
2019-03-17T20:29:48.854Z,97680.18
2019-03-17T20:32:17.528Z,97674.80
2019-03-17T20:34:46.471Z,97673.71
2019-03-17T20:37:15.415Z,97687.03
2019-03-17T20:39:44.336Z,97688.73
2019-03-17T20:42:13.302Z,97689.84
2019-03-17T20:44:42.236Z,97699.41
2019-03-17T20:47:11.434Z,97692.43
2019-03-17T20:49:40.487Z,97694.91
2019-03-17T20:52:09.185Z,97701.37
2019-03-17T20:54:38.122Z,97694.36
2019-03-17T20:57:06.814Z,97706.89
2019-03-17T20:59:35.507Z,97703.33
2019-03-17T21:02:04.830Z,97709.90
2019-03-17T21:04:33.507Z,97697.48
2019-03-17T21:07:02.707Z,97715.41
2019-03-17T21:09:31.378Z,97708.44
2019-03-17T21:12:00.584Z,97715.03
2019-03-17T21:14:30.803Z,97712.63
2019-03-17T21:16:59.527Z,97710.50
2019-03-17T21:19:28.234Z,97707.07
2019-03-17T21:21:57.441Z,97716.36
2019-03-17T21:24:26.659Z,97733.41
2019-03-17T21:26:55.638Z,97738.79
2019-03-17T21:29:24.320Z,97734.25
2019-03-17T21:31:53.037Z,97744.50
2019-03-17T21:34:22.312Z,97736.08
2019-03-17T21:36:51.039Z,97744.23
2019-03-17T21:39:20.238Z,97739.60
2019-03-17T21:41:49.061Z,97746.85
2019-03-17T21:44:19.051Z,97744.69
2019-03-17T21:46:47.786Z,97747.36
2019-03-17T21:49:17.558Z,97738.07
2019-03-17T21:51:48.553Z,97748.90
2019-03-17T21:54:17.863Z,97758.13
2019-03-17T21:56:46.596Z,97752.75
2019-03-17T21:59:15.612Z,97754.52
2019-03-17T22:01:44.607Z,97759.16
2019-03-17T22:04:13.330Z,97767.91
2019-03-17T22:06:42.088Z,97772.30
2019-03-17T22:09:10.752Z,97773.02
2019-03-17T22:11:41.614Z,97780.36
2019-03-17T22:14:12.229Z,97777.66
2019-03-17T22:16:40.636Z,97782.55
2019-03-17T22:19:09.623Z,97799.63
2019-03-17T22:21:38.316Z,97789.09
2019-03-17T22:24:07.267Z,97799.70
2019-03-17T22:26:36.236Z,97790.05
2019-03-17T22:29:05.291Z,97788.74
2019-03-17T22:31:34.177Z,97793.93
2019-03-17T22:34:03.380Z,97797.77
2019-03-17T22:36:32.346Z,97800.00
2019-03-17T22:39:01.124Z,97797.14
2019-03-17T22:41:29.941Z,97779.56
2019-03-17T22:43:59.189Z,97799.89
2019-03-17T22:46:27.869Z,97793.93
2019-03-17T22:48:59.057Z,97797.45
2019-03-17T22:51:27.760Z,97801.03
2019-03-17T22:53:56.849Z,97798.63
2019-03-17T22:56:25.474Z,97795.68
2019-03-17T22:58:54.198Z,97811.06
2019-03-17T23:01:23.261Z,97805.70
2019-03-17T23:03:51.972Z,97804.05
2019-03-17T23:06:20.689Z,97800.89
2019-03-17T23:08:49.393Z,97803.02
2019-03-17T23:11:18.436Z,97802.76
2019-03-17T23:13:47.378Z,97807.36
2019-03-17T23:16:16.087Z,97794.39
2019-03-17T23:18:45.052Z,97811.42
2019-03-17T23:21:14.245Z,97799.27
2019-03-17T23:23:43.200Z,97800.91
2019-03-17T23:26:11.919Z,97804.96
2019-03-17T23:28:40.934Z,97796.09
2019-03-17T23:31:09.633Z,97805.50
2019-03-17T23:33:38.345Z,97792.55
2019-03-17T23:36:07.277Z,97797.39
2019-03-17T23:38:35.955Z,97808.76
2019-03-17T23:41:04.639Z,97791.78
2019-03-17T23:43:33.375Z,97798.53
2019-03-17T23:46:02.082Z,97809.83
2019-03-17T23:48:30.779Z,97795.24
2019-03-17T23:50:59.983Z,97805.53
2019-03-17T23:53:28.926Z,97805.53
2019-03-17T23:55:57.641Z,97812.60
2019-03-17T23:58:26.615Z,97814.75
